createdAt,value
2023-01-27T00:01:06.143Z,-0.70
2023-01-27T00:03:34.139Z,-0.70
2023-01-27T00:06:01.329Z,-0.70
2023-01-27T00:08:29.925Z,-0.60
2023-01-27T00:11:19.256Z,-0.70
2023-01-27T00:13:46.305Z,-0.60
2023-01-27T00:16:13.379Z,-0.60
2023-01-27T00:18:40.434Z,-0.60
2023-01-27T00:21:26.030Z,-0.60
2023-01-27T00:24:12.217Z,-0.60
2023-01-27T00:26:39.235Z,-0.60
2023-01-27T00:29:06.287Z,-0.60
2023-01-27T00:31:51.845Z,-0.60
2023-01-27T00:34:19.230Z,-0.60
2023-01-27T00:36:46.455Z,-0.70
2023-01-27T00:39:14.303Z,-0.70
2023-01-27T00:41:42.025Z,-0.70
2023-01-27T00:44:13.685Z,-0.70
2023-01-27T00:46:42.006Z,-0.70
2023-01-27T00:49:10.717Z,-0.70
2023-01-27T00:51:38.268Z,-0.70
2023-01-27T00:54:05.800Z,-0.70
2023-01-27T00:56:34.559Z,-0.70
2023-01-27T00:59:01.879Z,-0.70
2023-01-27T01:01:29.816Z,-0.70
2023-01-27T01:03:59.561Z,-0.70
2023-01-27T01:07:03.999Z,-0.70
2023-01-27T01:09:30.983Z,-0.60
2023-01-27T01:11:57.983Z,-0.60
2023-01-27T01:14:24.917Z,-0.90
2023-01-27T01:16:52.158Z,-1.50
2023-01-27T01:19:19.698Z,-2.30
2023-01-27T01:21:46.670Z,-3.10
2023-01-27T01:24:14.071Z,-3.70
2023-01-27T01:26:41.352Z,-4.20
2023-01-27T01:29:08.363Z,-4.60
2023-01-27T01:31:35.500Z,-4.80
2023-01-27T01:34:02.533Z,-4.70
2023-01-27T01:36:29.821Z,-4.70
2023-01-27T01:38:58.026Z,-4.90
2023-01-27T01:41:26.639Z,-5.20
2023-01-27T01:43:54.052Z,-5.40
2023-01-27T01:46:21.365Z,-5.50
2023-01-27T01:48:58.099Z,-5.70
2023-01-27T01:51:37.404Z,-5.90
2023-01-27T01:54:09.746Z,-6.00
2023-01-27T01:57:01.437Z,-5.90
2023-01-27T01:59:55.077Z,-6.00
2023-01-27T02:02:26.315Z,-5.50
2023-01-27T02:05:05.313Z,-5.10
2023-01-27T02:07:54.063Z,-5.40
2023-01-27T02:10:21.058Z,-5.40
2023-01-27T02:12:48.038Z,-5.70
2023-01-27T02:15:15.636Z,-5.90
2023-01-27T02:17:43.344Z,-6.00
2023-01-27T02:20:41.322Z,-6.00
2023-01-27T02:23:40.895Z,-5.70
2023-01-27T02:26:17.418Z,-5.70
2023-01-27T02:28:44.699Z,-6.10
2023-01-27T02:31:12.117Z,-6.40
2023-01-27T02:33:39.489Z,-6.60
2023-01-27T02:36:12.177Z,-6.30
2023-01-27T02:38:51.733Z,-4.90
2023-01-27T02:41:50.893Z,-4.60
2023-01-27T02:44:18.418Z,-5.00
2023-01-27T02:46:45.658Z,-5.50
2023-01-27T02:49:13.019Z,-5.80
2023-01-27T02:51:40.263Z,-5.80
2023-01-27T02:54:07.577Z,-5.80
2023-01-27T02:56:35.979Z,-5.70
2023-01-27T02:59:03.057Z,-5.80
2023-01-27T03:01:33.025Z,-6.10
2023-01-27T03:04:00.433Z,-6.30
2023-01-27T03:06:27.467Z,-6.40
2023-01-27T03:08:54.580Z,-6.20
2023-01-27T03:11:40.196Z,-6.30
2023-01-27T03:14:09.358Z,-6.40
2023-01-27T03:16:55.182Z,-6.70
2023-01-27T03:19:22.228Z,-6.80
2023-01-27T03:21:53.302Z,-6.90
2023-01-27T03:24:21.200Z,-6.90
2023-01-27T03:26:48.528Z,-6.90
2023-01-27T03:29:34.031Z,-6.90
2023-01-27T03:32:01.023Z,-7.00
2023-01-27T03:34:28.254Z,-7.00
2023-01-27T03:37:14.060Z,-7.10
2023-01-27T03:40:00.155Z,-7.10
2023-01-27T03:42:46.112Z,-7.20
2023-01-27T03:45:31.674Z,-7.20
2023-01-27T03:47:58.678Z,-7.30
2023-01-27T03:50:38.168Z,-7.30
2023-01-27T03:53:06.539Z,-7.40
2023-01-27T03:55:35.460Z,-7.40
2023-01-27T03:58:18.565Z,-7.30
2023-01-27T04:00:55.071Z,-7.10
2023-01-27T04:03:42.865Z,-6.80
2023-01-27T04:06:41.882Z,-6.00
2023-01-27T04:09:10.585Z,-4.90
2023-01-27T04:11:56.261Z,-4.00
2023-01-27T04:14:45.822Z,-3.50
2023-01-27T04:17:17.855Z,-3.20
2023-01-27T04:19:45.721Z,-2.90
2023-01-27T04:22:14.277Z,-2.80
2023-01-27T04:24:42.133Z,-2.60
2023-01-27T04:27:12.390Z,-2.50
2023-01-27T04:29:41.808Z,-2.40
2023-01-27T04:32:11.022Z,-2.40
2023-01-27T04:34:39.166Z,-2.30
2023-01-27T04:37:08.158Z,-2.20
2023-01-27T04:39:36.363Z,-2.10
2023-01-27T04:42:03.872Z,-2.00
2023-01-27T04:44:31.480Z,-1.90
2023-01-27T04:46:58.593Z,-1.90
2023-01-27T04:49:27.256Z,-1.80
2023-01-27T04:51:55.349Z,-1.80
2023-01-27T04:54:22.800Z,-1.80
2023-01-27T04:57:01.577Z,-1.70
2023-01-27T04:59:29.104Z,-1.60
2023-01-27T05:01:56.727Z,-1.60
2023-01-27T05:04:24.663Z,-1.60
2023-01-27T05:06:51.872Z,-1.60
2023-01-27T05:09:19.174Z,-1.60
2023-01-27T05:11:46.703Z,-1.60
2023-01-27T05:14:14.788Z,-1.50
2023-01-27T05:16:41.829Z,-1.50
2023-01-27T05:19:09.916Z,-1.50
2023-01-27T05:21:37.018Z,-1.50
2023-01-27T05:24:04.549Z,-1.50
2023-01-27T05:26:31.839Z,-1.50
2023-01-27T05:28:59.322Z,-1.50
2023-01-27T05:31:31.965Z,-1.40
2023-01-27T05:34:00.837Z,-1.50
2023-01-27T05:36:29.015Z,-1.50
2023-01-27T05:38:58.241Z,-1.50
2023-01-27T05:41:26.757Z,-1.50
2023-01-27T05:43:56.048Z,-1.40
2023-01-27T05:46:26.134Z,-1.40
2023-01-27T05:48:55.754Z,-1.40
2023-01-27T05:51:24.943Z,-1.40
2023-01-27T05:53:54.259Z,-1.40
2023-01-27T05:56:23.064Z,-1.30
2023-01-27T05:58:50.027Z,-1.30
2023-01-27T06:01:22.834Z,-1.30
2023-01-27T06:03:50.213Z,-1.30
2023-01-27T06:06:19.471Z,-1.20
2023-01-27T06:08:48.023Z,-1.10
2023-01-27T06:11:15.981Z,-1.10
2023-01-27T06:13:43.084Z,-1.10
2023-01-27T06:16:12.839Z,-1.00
2023-01-27T06:18:40.778Z,-1.00
2023-01-27T06:21:10.109Z,-1.00
2023-01-27T06:23:38.487Z,-0.90
2023-01-27T06:26:17.465Z,-0.90
2023-01-27T06:28:45.779Z,-0.80
2023-01-27T06:31:16.224Z,-0.70
2023-01-27T06:33:43.682Z,-0.70
2023-01-27T06:36:13.394Z,-0.70
2023-01-27T06:38:40.793Z,-0.70
2023-01-27T06:41:08.020Z,-0.70
2023-01-27T06:43:35.054Z,-0.60
2023-01-27T06:46:05.234Z,-0.60
2023-01-27T06:48:33.987Z,-0.60
2023-01-27T06:51:01.542Z,-0.60
2023-01-27T06:53:28.592Z,-0.50
2023-01-27T06:55:58.113Z,-0.50
2023-01-27T06:58:25.998Z,-0.40
2023-01-27T07:00:53.797Z,-0.50
2023-01-27T07:03:21.304Z,-0.40
2023-01-27T07:05:48.303Z,-0.40
2023-01-27T07:08:15.433Z,-0.40
2023-01-27T07:10:42.710Z,-0.40
2023-01-27T07:13:14.836Z,-0.40
2023-01-27T07:15:42.235Z,-0.40
2023-01-27T07:18:14.635Z,-0.40
2023-01-27T07:20:42.126Z,-0.30
2023-01-27T07:23:10.436Z,-0.30
2023-01-27T07:25:37.987Z,-0.30
2023-01-27T07:28:06.504Z,-0.30
2023-01-27T07:30:34.677Z,-0.30
2023-01-27T07:33:19.854Z,-0.30
2023-01-27T07:35:50.181Z,-0.30
2023-01-27T07:38:17.498Z,-0.30
2023-01-27T07:40:44.446Z,-0.20
2023-01-27T07:43:12.456Z,-0.20
2023-01-27T07:45:39.816Z,-0.10
2023-01-27T07:48:08.597Z,0.00
2023-01-27T07:50:36.580Z,0.00
2023-01-27T07:53:05.078Z,0.00
2023-01-27T07:55:33.469Z,0.00
2023-01-27T07:58:00.671Z,0.10
2023-01-27T08:00:29.142Z,0.20
2023-01-27T08:02:57.747Z,0.20
2023-01-27T08:05:25.301Z,0.30
2023-01-27T08:07:54.057Z,0.30
2023-01-27T08:10:21.751Z,0.40
2023-01-27T08:12:48.884Z,0.40
2023-01-27T08:15:18.837Z,0.40
2023-01-27T08:17:57.004Z,0.40
2023-01-27T08:20:26.772Z,0.50
2023-01-27T08:22:53.887Z,0.40
2023-01-27T08:25:21.703Z,0.30
2023-01-27T08:27:53.519Z,0.20
2023-01-27T08:30:21.179Z,0.30
2023-01-27T08:32:48.710Z,0.40
2023-01-27T08:35:15.837Z,0.40
2023-01-27T08:37:42.873Z,0.40
2023-01-27T08:40:11.074Z,0.10
2023-01-27T08:42:38.588Z,-0.70
2023-01-27T08:45:06.321Z,-1.80
2023-01-27T08:47:33.530Z,-2.70
2023-01-27T08:50:00.573Z,-3.00
2023-01-27T08:52:30.968Z,-3.40
2023-01-27T08:54:58.855Z,-3.60
2023-01-27T08:57:26.271Z,-4.00
2023-01-27T08:59:53.346Z,-4.10
2023-01-27T09:02:22.666Z,-4.10
2023-01-27T09:04:49.940Z,-3.70
2023-01-27T09:07:18.180Z,-3.10
2023-01-27T09:09:51.224Z,-2.50
2023-01-27T09:12:21.105Z,-2.10
2023-01-27T09:14:48.407Z,-1.70
2023-01-27T09:17:19.805Z,-1.40
2023-01-27T09:19:47.595Z,-1.20
2023-01-27T09:22:14.864Z,-0.90
2023-01-27T09:24:41.857Z,-0.80
2023-01-27T09:27:09.061Z,-0.80
2023-01-27T09:29:37.065Z,-0.70
2023-01-27T09:32:04.873Z,-0.50
2023-01-27T09:34:32.153Z,-0.30
2023-01-27T09:37:05.022Z,-0.20
2023-01-27T09:39:35.543Z,0.00
2023-01-27T09:42:28.733Z,0.10
2023-01-27T09:45:10.917Z,0.20
2023-01-27T09:48:03.095Z,0.10
2023-01-27T09:50:38.214Z,0.20
2023-01-27T09:53:19.536Z,0.20
2023-01-27T09:56:07.111Z,0.40
2023-01-27T09:59:18.777Z,0.50
2023-01-27T10:01:57.718Z,0.70
2023-01-27T10:04:59.464Z,0.70
2023-01-27T10:07:44.445Z,0.70
2023-01-27T10:10:30.865Z,0.80
2023-01-27T10:13:22.906Z,1.00
2023-01-27T10:16:05.184Z,1.20
2023-01-27T10:18:44.316Z,1.20
2023-01-27T10:21:43.390Z,0.30
2023-01-27T10:24:51.012Z,-0.70
2023-01-27T10:27:24.071Z,-1.30
2023-01-27T10:30:13.232Z,-1.60
2023-01-27T10:32:52.455Z,-1.90
2023-01-27T10:35:39.865Z,-2.00
2023-01-27T10:38:30.751Z,-2.10
2023-01-27T10:41:34.375Z,-1.60
2023-01-27T10:44:23.291Z,-0.80
2023-01-27T10:47:04.197Z,0.10
2023-01-27T10:49:56.259Z,0.60
2023-01-27T10:52:46.635Z,1.10
2023-01-27T10:55:17.064Z,1.40
2023-01-27T10:57:54.171Z,1.60
2023-01-27T11:01:18.907Z,1.80
2023-01-27T11:03:42.975Z,1.90
2023-01-27T11:06:21.877Z,2.00
2023-01-27T11:08:54.423Z,2.00
2023-01-27T11:11:43.858Z,2.10
2023-01-27T11:14:27.662Z,2.20
2023-01-27T11:17:04.044Z,2.20
2023-01-27T11:19:38.377Z,2.20
2023-01-27T11:22:13.885Z,2.20
2023-01-27T11:25:09.251Z,2.20
2023-01-27T11:28:03.664Z,2.30
2023-01-27T11:31:10.809Z,2.30
2023-01-27T11:34:06.528Z,2.40
2023-01-27T11:36:36.662Z,2.30
2023-01-27T11:39:06.880Z,2.30
2023-01-27T11:41:51.543Z,2.40
2023-01-27T11:44:21.342Z,2.50
2023-01-27T11:46:50.818Z,2.60
2023-01-27T11:49:30.718Z,2.60
2023-01-27T11:52:14.879Z,2.60
2023-01-27T11:55:05.763Z,2.60
2023-01-27T11:57:33.757Z,2.70
2023-01-27T12:00:03.306Z,2.80
2023-01-27T12:02:36.261Z,2.80
2023-01-27T12:05:25.081Z,2.90
2023-01-27T12:07:59.187Z,2.90
2023-01-27T12:10:43.996Z,2.90
2023-01-27T12:13:25.025Z,2.90
2023-01-27T12:15:56.874Z,2.90
2023-01-27T12:18:24.187Z,2.90
2023-01-27T12:20:59.185Z,2.90
2023-01-27T12:23:34.380Z,2.90
2023-01-27T12:26:10.819Z,2.90
2023-01-27T12:28:52.388Z,2.40
2023-01-27T12:31:33.145Z,0.90
2023-01-27T12:34:17.393Z,-0.40
2023-01-27T12:36:45.498Z,-1.50
2023-01-27T12:39:49.402Z,-2.20
2023-01-27T12:42:38.381Z,-2.80
2023-01-27T12:45:22.819Z,-3.30
2023-01-27T12:48:01.720Z,-3.50
2023-01-27T12:50:34.976Z,-3.70
2023-01-27T12:53:14.042Z,-3.80
2023-01-27T12:56:01.457Z,-4.00
2023-01-27T12:58:47.080Z,-4.20
2023-01-27T13:01:32.874Z,-4.30
2023-01-27T13:04:23.654Z,-4.40
2023-01-27T13:07:03.863Z,-4.50
2023-01-27T13:09:45.623Z,-4.50
2023-01-27T13:12:31.839Z,-4.60
2023-01-27T13:15:15.643Z,-4.70
2023-01-27T13:17:45.817Z,-4.70
2023-01-27T13:20:28.483Z,-4.80
2023-01-27T13:23:02.512Z,-4.90
2023-01-27T13:26:11.433Z,-4.90
2023-01-27T13:28:54.443Z,-5.00
2023-01-27T13:31:52.911Z,-5.10
2023-01-27T13:34:38.449Z,-5.10
2023-01-27T13:37:24.740Z,-5.20
2023-01-27T13:40:04.088Z,-5.30
2023-01-27T13:42:44.700Z,-5.40
2023-01-27T13:45:41.881Z,-5.50
2023-01-27T13:48:33.667Z,-5.50
2023-01-27T13:51:18.427Z,-5.50
2023-01-27T13:53:47.933Z,-5.40
2023-01-27T13:56:21.184Z,-4.60
2023-01-27T13:58:53.774Z,-3.70
2023-01-27T14:01:54.969Z,-3.20
2023-01-27T14:04:37.825Z,-2.60
2023-01-27T14:07:29.283Z,-2.00
2023-01-27T14:10:21.262Z,-1.60
2023-01-27T14:13:16.526Z,-1.10
2023-01-27T14:15:49.846Z,-0.80
2023-01-27T14:18:28.283Z,-0.50
2023-01-27T14:21:13.358Z,-0.30
2023-01-27T14:24:01.007Z,0.00
2023-01-27T14:26:47.837Z,0.20
2023-01-27T14:29:15.071Z,0.30
2023-01-27T14:31:46.885Z,0.50
2023-01-27T14:34:31.057Z,0.60
2023-01-27T14:37:07.168Z,0.70
2023-01-27T14:39:57.417Z,0.80
2023-01-27T14:42:55.062Z,0.80
2023-01-27T14:45:50.861Z,0.80
2023-01-27T14:48:43.456Z,0.80
2023-01-27T14:51:34.255Z,0.90
2023-01-27T14:54:26.123Z,0.90
2023-01-27T14:57:08.178Z,0.90
2023-01-27T14:59:50.446Z,1.00
2023-01-27T15:02:39.592Z,1.10
2023-01-27T15:05:14.876Z,1.00
2023-01-27T15:08:05.409Z,1.00
2023-01-27T15:10:34.040Z,0.90
2023-01-27T15:13:10.455Z,0.90
2023-01-27T15:15:50.928Z,0.90
2023-01-27T15:18:36.297Z,0.80
2023-01-27T15:21:28.204Z,0.70
2023-01-27T15:23:58.413Z,0.70
2023-01-27T15:26:28.918Z,0.80
2023-01-27T15:28:58.151Z,0.90
2023-01-27T15:31:30.332Z,0.90
2023-01-27T15:34:03.813Z,0.90
2023-01-27T15:37:01.227Z,0.70
2023-01-27T15:39:40.350Z,0.60
2023-01-27T15:42:11.695Z,0.60
2023-01-27T15:44:41.283Z,0.60
2023-01-27T15:47:19.250Z,0.60
2023-01-27T15:49:49.915Z,0.50
2023-01-27T15:52:31.878Z,0.50
2023-01-27T15:55:02.695Z,0.40
2023-01-27T15:57:38.702Z,0.40
2023-01-27T16:00:30.768Z,0.40
2023-01-27T16:03:02.889Z,0.40
2023-01-27T16:05:37.793Z,0.30
2023-01-27T16:08:15.359Z,0.10
2023-01-27T16:10:43.191Z,0.00
2023-01-27T16:13:30.856Z,-0.10
2023-01-27T16:16:19.842Z,-0.30
2023-01-27T16:19:11.084Z,-0.20
2023-01-27T16:21:57.812Z,-0.40
2023-01-27T16:24:44.660Z,-0.50
2023-01-27T16:27:14.626Z,-0.50
2023-01-27T16:29:59.477Z,-0.50
2023-01-27T16:32:38.233Z,-0.50
2023-01-27T16:35:16.102Z,-0.40
2023-01-27T16:38:22.928Z,-0.40
2023-01-27T16:41:04.458Z,-0.30
2023-01-27T16:43:50.123Z,-0.20
2023-01-27T16:46:32.322Z,-0.10
2023-01-27T16:49:01.607Z,-0.10
2023-01-27T16:51:29.642Z,-0.10
2023-01-27T16:54:00.204Z,-0.10
2023-01-27T16:56:35.797Z,-0.10
2023-01-27T16:59:10.416Z,-0.10
2023-01-27T17:01:50.739Z,-0.10
2023-01-27T17:04:27.547Z,-0.20
2023-01-27T17:07:05.013Z,-0.20
2023-01-27T17:09:35.703Z,-0.20
2023-01-27T17:12:02.905Z,-0.20
2023-01-27T17:14:35.256Z,-0.10
2023-01-27T17:17:06.028Z,-0.10
2023-01-27T17:19:36.435Z,-0.10
2023-01-27T17:22:06.997Z,-0.10
2023-01-27T17:24:37.849Z,-0.10
2023-01-27T17:27:30.345Z,-0.10
2023-01-27T17:30:24.314Z,-0.10
2023-01-27T17:32:58.334Z,-0.10
2023-01-27T17:35:29.190Z,-0.10
2023-01-27T17:38:15.256Z,-0.10
2023-01-27T17:40:47.852Z,0.00
2023-01-27T17:43:36.965Z,0.00
2023-01-27T17:46:22.513Z,-0.40
2023-01-27T17:48:54.102Z,-1.60
2023-01-27T17:51:37.690Z,-2.70
2023-01-27T17:54:23.152Z,-3.60
2023-01-27T17:56:56.605Z,-4.30
2023-01-27T17:59:26.832Z,-4.80
2023-01-27T18:01:56.389Z,-5.20
2023-01-27T18:04:24.264Z,-5.50
2023-01-27T18:06:52.690Z,-5.70
2023-01-27T18:09:26.649Z,-5.80
2023-01-27T18:12:00.346Z,-6.00
2023-01-27T18:14:33.944Z,-6.10
2023-01-27T18:17:06.297Z,-6.30
2023-01-27T18:19:34.522Z,-6.40
2023-01-27T18:22:16.591Z,-6.50
2023-01-27T18:25:06.064Z,-6.60
2023-01-27T18:27:37.980Z,-6.70
2023-01-27T18:30:14.294Z,-6.70
2023-01-27T18:32:44.510Z,-6.70
2023-01-27T18:35:25.699Z,-6.70
2023-01-27T18:38:02.444Z,-6.80
2023-01-27T18:40:31.129Z,-6.90
2023-01-27T18:42:59.232Z,-6.90
2023-01-27T18:45:27.383Z,-7.00
2023-01-27T18:47:55.450Z,-6.90
2023-01-27T18:50:25.619Z,-5.80
2023-01-27T18:52:53.434Z,-5.10
2023-01-27T18:55:29.336Z,-5.30
2023-01-27T18:57:58.388Z,-5.70
2023-01-27T19:00:30.844Z,-6.00
2023-01-27T19:03:01.540Z,-6.10
2023-01-27T19:05:31.869Z,-6.00
2023-01-27T19:07:59.002Z,-5.90
2023-01-27T19:10:30.669Z,-5.80
2023-01-27T19:13:00.217Z,-5.70
2023-01-27T19:15:49.610Z,-5.60
2023-01-27T19:18:20.525Z,-5.50
2023-01-27T19:20:47.526Z,-5.40
2023-01-27T19:23:16.275Z,-5.00
2023-01-27T19:25:46.714Z,-4.50
2023-01-27T19:28:32.324Z,-4.00
2023-01-27T19:31:00.492Z,-3.60
2023-01-27T19:33:29.108Z,-3.20
2023-01-27T19:36:20.996Z,-3.00
2023-01-27T19:38:49.223Z,-2.70
2023-01-27T19:41:16.599Z,-2.50
2023-01-27T19:43:47.721Z,-2.30
2023-01-27T19:46:18.648Z,-2.20
2023-01-27T19:48:45.680Z,-2.10
2023-01-27T19:51:13.099Z,-2.00
2023-01-27T19:53:40.153Z,-1.90
2023-01-27T19:56:32.497Z,-1.80
2023-01-27T19:58:59.535Z,-1.80
2023-01-27T20:01:26.878Z,-1.70
2023-01-27T20:03:54.862Z,-1.60
2023-01-27T20:06:24.398Z,-1.60
2023-01-27T20:08:54.802Z,-1.50
2023-01-27T20:11:27.621Z,-1.40
2023-01-27T20:13:54.589Z,-1.40
2023-01-27T20:16:22.821Z,-1.40
2023-01-27T20:18:51.032Z,-1.40
2023-01-27T20:21:18.698Z,-1.40
2023-01-27T20:23:45.709Z,-1.40
2023-01-27T20:26:15.332Z,-1.30
2023-01-27T20:28:42.757Z,-1.30
2023-01-27T20:31:14.953Z,-1.30
2023-01-27T20:33:41.986Z,-1.20
2023-01-27T20:36:14.314Z,-1.20
2023-01-27T20:38:43.107Z,-1.20
2023-01-27T20:41:12.948Z,-1.10
2023-01-27T20:43:40.278Z,-1.10
2023-01-27T20:46:13.198Z,-1.00
2023-01-27T20:48:40.238Z,-1.00
2023-01-27T20:51:10.081Z,-1.00
2023-01-27T20:53:43.319Z,-1.00
2023-01-27T20:56:10.599Z,-1.00
2023-01-27T20:58:37.620Z,-0.90
2023-01-27T21:01:13.783Z,-0.90
2023-01-27T21:03:41.780Z,-0.90
2023-01-27T21:06:10.758Z,-1.00
2023-01-27T21:08:38.018Z,-1.00
2023-01-27T21:11:07.990Z,-1.00
2023-01-27T21:13:35.018Z,-1.00
2023-01-27T21:16:02.551Z,-1.00
2023-01-27T21:18:30.540Z,-1.00
2023-01-27T21:21:02.803Z,-1.00
2023-01-27T21:23:33.350Z,-0.90
2023-01-27T21:26:11.844Z,-0.90
2023-01-27T21:28:39.180Z,-0.80
2023-01-27T21:31:11.465Z,-0.70
2023-01-27T21:33:39.738Z,-0.70
2023-01-27T21:36:10.464Z,-0.80
2023-01-27T21:38:38.664Z,-0.80
2023-01-27T21:41:10.710Z,-0.80
2023-01-27T21:43:56.519Z,-0.80
2023-01-27T21:46:24.633Z,-0.80
2023-01-27T21:48:51.688Z,-1.10
2023-01-27T21:51:18.883Z,-2.00
2023-01-27T21:53:45.910Z,-2.90
2023-01-27T21:56:13.482Z,-3.70
2023-01-27T21:58:41.044Z,-4.10
2023-01-27T22:01:11.689Z,-4.50
2023-01-27T22:03:39.298Z,-4.70
2023-01-27T22:06:08.024Z,-4.90
2023-01-27T22:08:36.348Z,-5.00
2023-01-27T22:11:04.759Z,-5.10
2023-01-27T22:13:32.267Z,-5.10
2023-01-27T22:16:00.385Z,-5.10
2023-01-27T22:18:27.494Z,-5.10
2023-01-27T22:20:54.604Z,-5.10
2023-01-27T22:23:23.823Z,-5.10
2023-01-27T22:25:52.496Z,-5.00
2023-01-27T22:28:24.157Z,-4.70
2023-01-27T22:30:51.507Z,-4.40
2023-01-27T22:33:18.897Z,-4.00
2023-01-27T22:35:46.280Z,-3.60
2023-01-27T22:38:13.959Z,-3.20
2023-01-27T22:40:41.317Z,-2.90
2023-01-27T22:43:10.887Z,-2.60
2023-01-27T22:45:41.111Z,-2.40
2023-01-27T22:48:09.121Z,-2.20
2023-01-27T22:50:37.468Z,-2.10
2023-01-27T22:53:05.538Z,-1.90
2023-01-27T22:55:33.061Z,-1.70
2023-01-27T22:58:00.554Z,-1.60
2023-01-27T23:00:27.588Z,-1.50
2023-01-27T23:02:54.951Z,-1.40
2023-01-27T23:05:22.014Z,-1.40
2023-01-27T23:07:49.251Z,-1.30
2023-01-27T23:10:17.120Z,-1.20
2023-01-27T23:12:44.634Z,-1.30
2023-01-27T23:15:13.562Z,-1.20
2023-01-27T23:17:41.058Z,-1.20
2023-01-27T23:20:09.156Z,-1.20
2023-01-27T23:22:37.009Z,-1.20
2023-01-27T23:25:04.659Z,-1.10
2023-01-27T23:27:32.941Z,-1.10
2023-01-27T23:30:00.180Z,-1.70
2023-01-27T23:32:27.675Z,-2.90
2023-01-27T23:34:54.939Z,-3.90
2023-01-27T23:37:22.234Z,-4.70
2023-01-27T23:39:50.379Z,-5.30
2023-01-27T23:42:18.578Z,-5.70
2023-01-27T23:44:47.299Z,-6.10
2023-01-27T23:47:16.860Z,-6.40
2023-01-27T23:49:44.127Z,-6.60
2023-01-27T23:52:11.259Z,-6.80
2023-01-27T23:54:38.958Z,-6.90
2023-01-27T23:57:06.474Z,-7.00
2023-01-27T23:59:33.565Z,-7.10
